KFCH/FCH METAR and TAF weather

Enter ICAO airport designator
Station Type Date Time Source
KFCH METAR 2020/05/14 10:35 UTC NOAA

KFCH 141035Z AUTO 32011KT 10SM FEW029 15/09 A3006 RMK A01


Station Type Date Time Source
KFCH Decoded METAR 2020/05/14 10:35 UTC NOAA

Fresno-Chandler, CA, United States (KFCH) 36-44N 119-49W
May 14, 2020 - 06:35 AM EDT / 2020.05.14 1035 UTC
Wind: from the NW (320 degrees) at 13 MPH (11 KT):0
Visibility: 10 mile(s):0
Sky conditions: mostly clear
Temperature: 59 F (15 C)
Dew Point: 48 F (9 C)
Relative Humidity: 67%
Pressure (altimeter): 30.06 in. Hg (1017 hPa)
ob: KFCH 141035Z AUTO 32011KT 10SM FEW029 15/09 A3006 RMK A01
cycle: 10

Station Type Date Time Source
KFCH TAF UTC NOAA

Error!

Example: see airport list